LEST/SCQ METAR and TAF weather

Enter ICAO airport designator
Station Type Date Time Source
LEST METAR 2020/03/31 05:30 UTC NOAA

LEST 310530Z 04008KT 360V070 9999 FEW035 02/M00 Q1010 NOSIG


Station Type Date Time Source
LEST Decoded METAR 2020/03/31 05:30 UTC NOAA

Santiago / Labacolla, Spain (LEST) 42-54N 008-26W 367M
Mar 31, 2020 - 01:30 AM EDT / 2020.03.31 0530 UTC
Wind: from the NE (040 degrees) at 9 MPH (8 KT) (direction variable):0
Visibility: greater than 7 mile(s):0
Sky conditions: mostly clear
Temperature: 35 F (2 C)
Windchill: 28 F (-2 C):1
Dew Point: 32 F (0 C)
Relative Humidity: 86%
Pressure (altimeter): 29.83 in. Hg (1010 hPa)
ob: LEST 310530Z 04008KT 360V070 9999 FEW035 02/M00 Q1010 NOSIG
cycle: 5

Station Type Date Time Source
LEST TAF 2020/03/31 06:27 UTC NOAA

TAF LEST 310500Z 3106/0106 04009KT 9999 SCT030 TX10/3115Z TN01/3106Z
TEMPO 3109/3120 06015G25KT

Example: see airport list